createdAt,value
2022-09-07T00:00:56.152Z,8.02
2022-09-07T00:03:23.893Z,8.32
2022-09-07T00:05:52.975Z,10.35
2022-09-07T00:08:24.367Z,10.10
2022-09-07T00:11:04.381Z,10.30
2022-09-07T00:13:35.321Z,11.38
2022-09-07T00:16:12.628Z,10.02
2022-09-07T00:18:45.583Z,9.68
2022-09-07T00:21:15.205Z,12.10
2022-09-07T00:23:42.881Z,9.18
2022-09-07T00:26:14.197Z,10.00
2022-09-07T00:28:42.162Z,10.02
2022-09-07T00:31:23.734Z,10.15
2022-09-07T00:33:53.341Z,11.63
2022-09-07T00:36:22.390Z,8.93
2022-09-07T00:38:50.331Z,8.85
2022-09-07T00:41:19.325Z,9.77
2022-09-07T00:43:52.773Z,11.13
2022-09-07T00:46:34.010Z,8.70
2022-09-07T00:49:13.267Z,8.07
2022-09-07T00:51:48.500Z,9.57
2022-09-07T00:54:24.103Z,8.73
2022-09-07T00:56:53.290Z,9.90
2022-09-07T00:59:25.714Z,10.00
2022-09-07T01:01:53.804Z,9.90
2022-09-07T01:04:22.801Z,12.93
2022-09-07T01:06:50.666Z,10.30
2022-09-07T01:09:23.237Z,9.45
2022-09-07T01:11:52.991Z,10.05
2022-09-07T01:14:36.576Z,9.48
2022-09-07T01:30:32.307Z,10.00
2022-09-07T01:43:38.419Z,9.68
2022-09-07T01:46:14.978Z,11.52
2022-09-07T01:48:45.054Z,10.30
2022-09-07T01:51:13.180Z,13.38
2022-09-07T01:53:55.655Z,10.27
2022-09-07T01:59:44.688Z,13.43
2022-09-07T05:35:32.447Z,14.48
2022-09-07T05:38:00.123Z,12.10
2022-09-07T05:49:40.281Z,13.13
2022-09-07T05:55:42.207Z,9.63
2022-09-07T05:58:10.100Z,10.43
2022-09-07T06:00:37.508Z,10.63
2022-09-07T06:03:05.164Z,10.23
2022-09-07T06:05:32.616Z,11.80
2022-09-07T06:07:59.809Z,9.55
2022-09-07T06:13:09.569Z,10.63
2022-09-07T06:15:43.180Z,8.70
2022-09-07T06:18:15.354Z,8.82
2022-09-07T06:20:42.551Z,10.88
2022-09-07T06:23:09.746Z,9.50
2022-09-07T06:25:36.911Z,9.63
2022-09-07T06:28:04.336Z,10.23
2022-09-07T06:30:31.541Z,9.45
2022-09-07T06:33:01.615Z,11.32
2022-09-07T06:35:29.147Z,9.20
2022-09-07T06:37:56.522Z,9.45
2022-09-07T06:40:23.802Z,10.10
2022-09-07T06:42:50.937Z,11.18
2022-09-07T06:45:19.103Z,11.18
2022-09-07T06:47:46.237Z,10.38
2022-09-07T06:50:15.883Z,13.35
2022-09-07T06:55:32.739Z,9.70
2022-09-07T06:57:59.975Z,13.40
2022-09-07T07:00:27.431Z,9.88
2022-09-07T07:02:55.167Z,9.15
2022-09-07T07:05:43.247Z,8.98
2022-09-07T07:08:10.623Z,9.20
2022-09-07T07:10:39.785Z,11.55
2022-09-07T07:13:12.901Z,10.98
2022-09-07T07:15:41.933Z,8.10
2022-09-07T07:18:20.865Z,10.05
2022-09-07T07:20:48.707Z,9.43
2022-09-07T07:23:16.164Z,8.43
2022-09-07T07:25:43.746Z,9.88
2022-09-07T07:31:00.484Z,12.15
2022-09-07T07:33:37.807Z,9.95
2022-09-07T07:36:17.053Z,9.65
2022-09-07T07:44:19.475Z,12.50
2022-09-07T07:46:51.659Z,8.10
2022-09-07T07:54:37.182Z,9.30
2022-09-07T07:57:07.749Z,9.25
2022-09-07T07:59:35.576Z,9.70
2022-09-07T08:02:05.464Z,8.20
2022-09-07T08:04:34.301Z,10.63
2022-09-07T08:07:08.611Z,11.65
2022-09-07T08:09:39.217Z,8.88
2022-09-07T08:12:06.727Z,7.85
2022-09-07T08:14:36.742Z,8.05
2022-09-07T08:17:04.011Z,9.90
2022-09-07T08:19:31.665Z,8.95
2022-09-07T08:21:59.437Z,11.60
2022-09-07T08:24:26.782Z,10.93
2022-09-07T08:26:54.351Z,8.45
2022-09-07T08:29:21.914Z,11.15
2022-09-07T08:31:49.174Z,7.80
2022-09-07T08:34:16.863Z,7.28
2022-09-07T08:36:44.312Z,9.38
2022-09-07T08:39:11.873Z,8.82
2022-09-07T08:42:00.923Z,9.18
2022-09-07T08:44:46.756Z,8.27
2022-09-07T08:47:37.776Z,8.13
2022-09-07T08:50:12.426Z,9.90
2022-09-07T08:52:48.579Z,7.47
2022-09-07T08:55:40.511Z,14.15
2022-09-07T08:58:38.499Z,7.65
2022-09-07T09:04:16.897Z,8.70
2022-09-07T09:06:47.327Z,8.50
2022-09-07T09:09:17.714Z,8.63
2022-09-07T09:12:08.977Z,7.72
2022-09-07T09:15:00.438Z,7.53
2022-09-07T09:17:33.949Z,9.68
2022-09-07T09:20:08.985Z,7.70
2022-09-07T09:22:36.954Z,8.68
2022-09-07T09:25:07.565Z,8.48
2022-09-07T09:27:34.988Z,8.43
2022-09-07T09:30:02.364Z,9.48
2022-09-07T09:32:41.899Z,8.27
2022-09-07T09:35:36.268Z,7.97
2022-09-07T09:38:03.957Z,9.00
2022-09-07T09:40:33.855Z,9.18
2022-09-07T09:43:20.101Z,8.50
2022-09-07T09:48:41.807Z,6.32
2022-09-07T09:54:06.371Z,9.27
2022-09-07T09:56:43.076Z,9.98
2022-09-07T10:05:42.940Z,7.38
2022-09-07T10:08:26.512Z,7.47
2022-09-07T10:11:04.716Z,7.32
2022-09-07T10:13:55.940Z,6.22
2022-09-07T10:16:40.703Z,8.82
2022-09-07T10:19:42.245Z,6.47
2022-09-07T10:22:31.305Z,8.02
2022-09-07T10:24:58.765Z,10.20
2022-09-07T10:27:30.933Z,9.35
2022-09-07T10:32:43.587Z,10.05
2022-09-07T10:35:30.906Z,9.07
2022-09-07T10:38:04.029Z,8.45
2022-09-07T10:40:38.020Z,9.02
2022-09-07T10:43:23.787Z,11.45
2022-09-07T10:49:32.443Z,13.32
2022-09-07T10:52:23.220Z,14.15
2022-09-07T10:55:00.279Z,14.20
2022-09-07T10:57:49.362Z,12.50
2022-09-07T11:00:21.627Z,13.57
2022-09-07T11:06:25.015Z,14.90
2022-09-07T11:09:30.853Z,15.73
2022-09-07T11:12:16.852Z,17.40
2022-09-07T11:14:52.114Z,16.40
2022-09-07T11:17:25.347Z,15.90
2022-09-07T11:20:11.524Z,17.98
2022-09-07T11:22:57.668Z,15.90
2022-09-07T11:25:47.297Z,18.48
2022-09-07T11:28:17.850Z,16.77
2022-09-07T11:31:00.806Z,16.33
2022-09-07T11:33:35.686Z,18.38
2022-09-07T11:36:11.297Z,17.60
2022-09-07T11:38:51.542Z,21.38
2022-09-07T11:41:26.648Z,20.70
2022-09-07T11:44:03.286Z,21.10
2022-09-07T11:46:40.971Z,22.73
2022-09-07T11:49:23.734Z,18.73
2022-09-07T11:52:29.351Z,19.63
2022-09-07T11:55:00.488Z,18.55
2022-09-07T11:57:33.905Z,15.13
2022-09-07T12:00:24.630Z,18.63
2022-09-07T12:03:08.783Z,17.10
2022-09-07T12:06:13.438Z,17.55
2022-09-07T12:08:59.124Z,15.77
2022-09-07T12:12:14.359Z,17.33
2022-09-07T12:14:49.153Z,16.50
2022-09-07T12:17:26.243Z,16.23
2022-09-07T12:20:28.151Z,15.73
2022-09-07T12:23:05.252Z,17.60
2022-09-07T12:25:34.400Z,16.88
2022-09-07T12:28:02.065Z,17.52
2022-09-07T12:30:30.988Z,17.05
2022-09-07T12:33:18.803Z,16.83
2022-09-07T12:35:46.105Z,16.55
2022-09-07T12:38:19.549Z,16.45
2022-09-07T12:41:20.834Z,16.13
2022-09-07T12:43:51.205Z,15.60
2022-09-07T12:46:40.096Z,15.75
2022-09-07T12:49:25.586Z,16.10
2022-09-07T12:52:15.353Z,16.67
2022-09-07T12:55:04.450Z,17.30
2022-09-07T12:57:42.688Z,16.35
2022-09-07T13:00:35.454Z,16.55
2022-09-07T13:09:37.058Z,17.52
2022-09-07T13:15:35.634Z,15.98
2022-09-07T13:20:36.204Z,18.45
2022-09-07T13:23:39.841Z,16.02
2022-09-07T13:26:31.549Z,20.02
2022-09-07T13:29:03.449Z,15.75
2022-09-07T13:32:04.113Z,15.20
2022-09-07T13:34:34.158Z,15.23
2022-09-07T13:37:03.407Z,16.60
2022-09-07T13:39:40.566Z,16.30
2022-09-07T13:42:13.478Z,16.48
2022-09-07T13:44:42.044Z,18.00
2022-09-07T13:47:25.113Z,14.32
2022-09-07T13:50:22.912Z,15.73
2022-09-07T13:53:30.893Z,16.15
2022-09-07T13:56:13.204Z,12.70
2022-09-07T14:01:12.569Z,13.27
2022-09-07T14:03:48.151Z,9.98
2022-09-07T14:06:16.501Z,10.40
2022-09-07T14:08:52.164Z,14.18
2022-09-07T14:11:47.144Z,10.23
2022-09-07T14:14:23.171Z,10.05
2022-09-07T14:17:06.251Z,9.23
2022-09-07T14:19:42.386Z,8.88
2022-09-07T14:22:34.767Z,7.75
2022-09-07T14:27:36.434Z,8.00
2022-09-07T14:30:26.487Z,8.52
2022-09-07T14:33:01.104Z,8.57
2022-09-07T14:35:49.574Z,8.15
2022-09-07T14:41:20.338Z,8.50
2022-09-07T14:43:58.819Z,7.20
2022-09-07T14:46:34.439Z,8.02
2022-09-07T14:49:22.619Z,7.68
2022-09-07T14:51:51.033Z,6.25
2022-09-07T14:54:27.941Z,5.75
2022-09-07T14:57:07.714Z,6.75
2022-09-07T14:59:48.354Z,5.40
2022-09-07T15:02:18.408Z,9.05
2022-09-07T15:05:14.675Z,7.95
2022-09-07T15:07:46.192Z,6.32
2022-09-07T15:10:38.336Z,6.80
2022-09-07T15:13:22.814Z,8.45
2022-09-07T15:16:07.411Z,6.57
2022-09-07T15:18:40.729Z,7.07
2022-09-07T15:21:09.593Z,10.68
2022-09-07T15:23:36.882Z,10.10
2022-09-07T15:26:04.398Z,7.78
2022-09-07T15:34:16.162Z,8.82
2022-09-07T15:36:48.779Z,13.07
2022-09-07T15:39:19.395Z,9.75
2022-09-07T15:41:47.216Z,8.23
2022-09-07T15:44:15.422Z,10.15
2022-09-07T15:47:42.481Z,8.35
2022-09-07T15:49:31.129Z,8.32
2022-09-07T15:52:06.135Z,8.73
2022-09-07T15:54:35.254Z,8.40
2022-09-07T15:59:51.867Z,8.18
2022-09-07T16:05:09.184Z,5.28
2022-09-07T16:10:24.638Z,4.25
2022-09-07T16:15:46.858Z,5.85
2022-09-07T16:18:17.426Z,5.32
2022-09-07T16:20:45.576Z,7.07
2022-09-07T16:23:15.617Z,5.70
2022-09-07T16:25:56.340Z,7.63
2022-09-07T16:28:24.009Z,4.30
2022-09-07T16:30:51.393Z,4.85
2022-09-07T16:33:18.781Z,7.90
2022-09-07T16:35:59.545Z,4.93
2022-09-07T16:38:44.544Z,5.13
2022-09-07T16:41:21.939Z,5.90
2022-09-07T16:43:49.708Z,5.45
2022-09-07T16:46:19.253Z,6.97
2022-09-07T16:48:46.519Z,6.30
2022-09-07T16:51:16.089Z,6.45
2022-09-07T16:53:43.850Z,7.10
2022-09-07T16:56:13.498Z,4.82
2022-09-07T16:58:44.199Z,5.38
2022-09-07T17:01:14.098Z,7.35
2022-09-07T17:03:42.657Z,4.72
2022-09-07T17:06:12.219Z,10.23
2022-09-07T17:08:40.270Z,5.65
2022-09-07T17:11:10.166Z,7.72
2022-09-07T17:13:39.178Z,8.00
2022-09-07T17:16:12.370Z,5.93
2022-09-07T17:21:39.121Z,6.20
2022-09-07T17:24:08.263Z,8.07
2022-09-07T17:26:36.009Z,6.13
2022-09-07T17:29:03.415Z,8.55
2022-09-07T17:34:20.817Z,9.65
2022-09-07T17:36:48.798Z,9.48
2022-09-07T17:39:18.170Z,9.07
2022-09-07T17:41:53.079Z,8.77
2022-09-07T17:44:21.892Z,8.98
2022-09-07T17:46:49.620Z,8.80
2022-09-07T17:49:18.199Z,10.77
2022-09-07T17:51:46.244Z,10.90
2022-09-07T17:54:18.299Z,9.60
2022-09-07T18:02:02.291Z,9.52
2022-09-07T18:04:29.598Z,11.93
2022-09-07T18:06:57.318Z,9.35
2022-09-07T18:09:25.062Z,10.65
2022-09-07T18:11:55.230Z,13.25
2022-09-07T18:14:22.931Z,12.63
2022-09-07T18:16:51.361Z,14.10
2022-09-07T18:19:19.599Z,10.90
2022-09-07T18:21:48.507Z,12.23
2022-09-07T18:24:19.652Z,8.25
2022-09-07T18:26:51.086Z,9.43
2022-09-07T18:32:03.772Z,12.75
2022-09-07T18:34:32.188Z,11.00
2022-09-07T18:37:00.585Z,10.63
2022-09-07T18:39:28.786Z,11.82
2022-09-07T18:41:56.375Z,12.18
2022-09-07T18:47:27.883Z,9.43
2022-09-07T18:49:56.526Z,10.50
2022-09-07T18:55:13.129Z,13.07
2022-09-07T18:57:41.658Z,11.13
2022-09-07T19:00:16.133Z,10.88
2022-09-07T19:02:47.483Z,10.52
2022-09-07T19:08:05.065Z,11.30
2022-09-07T19:10:37.311Z,10.57
2022-09-07T19:13:05.615Z,12.77
2022-09-07T19:15:37.773Z,9.52
2022-09-07T19:18:06.334Z,9.73
2022-09-07T19:20:35.215Z,10.18
2022-09-07T19:23:03.402Z,8.30
2022-09-07T19:25:31.198Z,8.75
2022-09-07T19:27:58.842Z,11.30
2022-09-07T19:30:27.401Z,9.32
2022-09-07T19:32:55.133Z,10.82
2022-09-07T19:35:22.882Z,10.75
2022-09-07T19:37:51.132Z,12.05
2022-09-07T19:40:21.604Z,12.32
2022-09-07T19:42:50.966Z,9.10
2022-09-07T19:45:18.852Z,9.00
2022-09-07T19:47:46.732Z,11.95
2022-09-07T19:50:14.224Z,12.50
2022-09-07T19:52:42.056Z,10.32
2022-09-07T19:55:10.477Z,10.98
2022-09-07T19:57:38.139Z,11.38
2022-09-07T20:00:06.888Z,12.23
2022-09-07T20:02:39.701Z,11.82
2022-09-07T20:05:08.398Z,12.07
2022-09-07T20:07:36.511Z,13.07
2022-09-07T20:10:04.371Z,10.50
2022-09-07T20:12:32.183Z,12.75
2022-09-07T20:14:59.929Z,11.68
2022-09-07T20:17:30.702Z,13.85
2022-09-07T20:20:02.486Z,12.10
2022-09-07T20:22:30.059Z,12.90
2022-09-07T20:24:57.628Z,10.38
2022-09-07T20:27:26.373Z,11.23
2022-09-07T20:29:53.981Z,11.88
2022-09-07T20:32:21.279Z,12.30
2022-09-07T20:34:48.845Z,13.00
2022-09-07T20:37:16.078Z,13.73
2022-09-07T20:39:43.487Z,12.35
2022-09-07T20:42:10.923Z,14.27
2022-09-07T20:44:38.331Z,11.35
2022-09-07T20:47:05.816Z,12.55
2022-09-07T20:49:33.084Z,11.52
2022-09-07T20:52:00.358Z,14.52
2022-09-07T20:54:27.570Z,16.83
2022-09-07T20:56:54.878Z,13.77
2022-09-07T20:59:22.133Z,13.48
2022-09-07T21:01:49.669Z,14.70
2022-09-07T21:04:17.029Z,16.48
2022-09-07T21:06:44.300Z,11.73
2022-09-07T21:09:11.515Z,14.52
2022-09-07T21:11:40.099Z,14.18
2022-09-07T21:14:11.838Z,14.45
2022-09-07T21:16:39.694Z,12.63
2022-09-07T21:19:08.842Z,14.65
2022-09-07T21:21:39.492Z,15.07
2022-09-07T21:24:13.159Z,16.02
2022-09-07T21:26:40.496Z,16.63
2022-09-07T21:29:07.890Z,15.15
2022-09-07T21:31:35.207Z,14.40
2022-09-07T21:34:03.006Z,13.75
2022-09-07T21:36:31.221Z,14.57
2022-09-07T21:38:58.558Z,15.82
2022-09-07T21:41:26.363Z,14.13
2022-09-07T21:43:58.722Z,15.00
2022-09-07T21:46:27.166Z,14.20
2022-09-07T21:48:56.508Z,19.27
2022-09-07T21:51:24.739Z,15.57
2022-09-07T21:53:53.683Z,16.42
2022-09-07T21:56:21.768Z,14.40
2022-09-07T21:58:52.965Z,18.58
2022-09-07T22:01:20.583Z,16.40
2022-09-07T22:03:53.057Z,13.75
2022-09-07T22:06:20.399Z,18.58
2022-09-07T22:08:47.823Z,15.15
2022-09-07T22:11:18.068Z,17.75
2022-09-07T22:13:45.633Z,16.05
2022-09-07T22:16:14.286Z,19.75
2022-09-07T22:18:46.006Z,16.27
2022-09-07T22:21:19.834Z,18.42
2022-09-07T22:23:50.091Z,17.98
2022-09-07T22:26:20.813Z,17.67
2022-09-07T22:28:48.637Z,16.25
2022-09-07T22:31:17.423Z,15.70
2022-09-07T22:33:45.887Z,16.05
2022-09-07T22:36:17.929Z,16.45
2022-09-07T22:38:46.979Z,18.38
2022-09-07T22:41:34.805Z,17.05
2022-09-07T22:44:02.219Z,17.58
2022-09-07T22:46:31.225Z,16.55
2022-09-07T22:48:59.422Z,16.98
2022-09-07T22:51:27.444Z,18.00
2022-09-07T22:53:55.833Z,16.50
2022-09-07T22:56:29.948Z,17.85
2022-09-07T22:59:00.429Z,16.13
2022-09-07T23:01:29.942Z,19.98
2022-09-07T23:03:57.727Z,23.05
2022-09-07T23:06:26.738Z,17.90
2022-09-07T23:08:56.696Z,17.90
2022-09-07T23:11:24.999Z,19.65
2022-09-07T23:13:53.398Z,19.70
2022-09-07T23:16:21.964Z,17.52
2022-09-07T23:18:49.430Z,16.40
2022-09-07T23:21:16.784Z,16.15
2022-09-07T23:23:44.060Z,19.00
2022-09-07T23:26:11.605Z,17.05
2022-09-07T23:28:38.843Z,17.52
2022-09-07T23:31:09.891Z,19.58
2022-09-07T23:33:37.458Z,16.40
2022-09-07T23:36:07.160Z,16.33
2022-09-07T23:38:34.752Z,17.23
2022-09-07T23:41:02.437Z,19.52
2022-09-07T23:43:30.454Z,16.35
2022-09-07T23:45:59.338Z,19.00
2022-09-07T23:48:27.081Z,17.00
2022-09-07T23:50:54.673Z,16.77
2022-09-07T23:53:22.778Z,14.05
2022-09-07T23:55:53.408Z,16.95
2022-09-07T23:58:22.055Z,16.40
